sensor_id;sensor_type;location;lat;lon;timestamp;P1;durP1;ratioP1;P2;durP2;ratioP2
76348;SDS011;65172;46.764;15.406;2023-06-26T00:02:16;13.90;;;11.38;;
76348;SDS011;65172;46.764;15.406;2023-06-26T00:04:42;15.30;;;11.00;;
76348;SDS011;65172;46.764;15.406;2023-06-26T00:07:08;17.10;;;12.27;;
76348;SDS011;65172;46.764;15.406;2023-06-26T00:09:33;16.70;;;12.48;;
76348;SDS011;65172;46.764;15.406;2023-06-26T00:11:59;16.23;;;11.80;;
76348;SDS011;65172;46.764;15.406;2023-06-26T00:14:25;15.05;;;11.85;;
76348;SDS011;65172;46.764;15.406;2023-06-26T00:16:51;16.63;;;12.02;;
76348;SDS011;65172;46.764;15.406;2023-06-26T00:19:16;16.58;;;12.57;;
76348;SDS011;65172;46.764;15.406;2023-06-26T00:21:42;18.70;;;13.00;;
76348;SDS011;65172;46.764;15.406;2023-06-26T00:24:14;17.73;;;12.63;;
76348;SDS011;65172;46.764;15.406;2023-06-26T00:26:40;19.20;;;13.73;;
76348;SDS011;65172;46.764;15.406;2023-06-26T00:29:05;16.63;;;12.63;;
76348;SDS011;65172;46.764;15.406;2023-06-26T00:31:31;17.20;;;13.13;;
76348;SDS011;65172;46.764;15.406;2023-06-26T00:33:56;21.30;;;14.57;;
76348;SDS011;65172;46.764;15.406;2023-06-26T00:36:22;16.88;;;13.63;;
76348;SDS011;65172;46.764;15.406;2023-06-26T00:38:51;17.70;;;12.77;;
76348;SDS011;65172;46.764;15.406;2023-06-26T00:41:17;17.50;;;12.68;;
76348;SDS011;65172;46.764;15.406;2023-06-26T00:43:42;17.95;;;13.32;;
76348;SDS011;65172;46.764;15.406;2023-06-26T00:46:08;19.40;;;12.55;;
76348;SDS011;65172;46.764;15.406;2023-06-26T00:48:36;15.30;;;11.55;;
76348;SDS011;65172;46.764;15.406;2023-06-26T00:51:02;16.05;;;12.23;;
76348;SDS011;65172;46.764;15.406;2023-06-26T00:53:27;19.08;;;12.55;;
76348;SDS011;65172;46.764;15.406;2023-06-26T00:55:53;16.58;;;12.45;;
76348;SDS011;65172;46.764;15.406;2023-06-26T00:58:19;17.33;;;12.57;;
76348;SDS011;65172;46.764;15.406;2023-06-26T01:00:47;17.17;;;11.85;;
76348;SDS011;65172;46.764;15.406;2023-06-26T01:03:12;18.73;;;12.75;;
76348;SDS011;65172;46.764;15.406;2023-06-26T01:05:38;18.73;;;12.10;;
76348;SDS011;65172;46.764;15.406;2023-06-26T01:08:03;16.23;;;12.43;;
76348;SDS011;65172;46.764;15.406;2023-06-26T01:10:32;16.85;;;12.88;;
76348;SDS011;65172;46.764;15.406;2023-06-26T01:12:57;21.60;;;13.27;;
76348;SDS011;65172;46.764;15.406;2023-06-26T01:15:23;19.27;;;13.93;;
76348;SDS011;65172;46.764;15.406;2023-06-26T01:17:49;15.70;;;12.40;;
76348;SDS011;65172;46.764;15.406;2023-06-26T01:20:15;18.98;;;13.57;;
76348;SDS011;65172;46.764;15.406;2023-06-26T01:22:49;17.83;;;12.38;;
76348;SDS011;65172;46.764;15.406;2023-06-26T01:28:17;16.10;;;13.07;;
76348;SDS011;65172;46.764;15.406;2023-06-26T01:30:44;18.67;;;13.18;;
76348;SDS011;65172;46.764;15.406;2023-06-26T01:33:11;15.82;;;12.75;;
76348;SDS011;65172;46.764;15.406;2023-06-26T01:35:37;19.15;;;13.20;;
76348;SDS011;65172;46.764;15.406;2023-06-26T01:38:15;17.73;;;13.52;;
76348;SDS011;65172;46.764;15.406;2023-06-26T01:40:42;18.13;;;13.90;;
76348;SDS011;65172;46.764;15.406;2023-06-26T01:43:12;17.73;;;13.93;;
76348;SDS011;65172;46.764;15.406;2023-06-26T01:45:45;17.55;;;12.90;;
76348;SDS011;65172;46.764;15.406;2023-06-26T01:48:11;17.90;;;12.48;;
76348;SDS011;65172;46.764;15.406;2023-06-26T01:50:38;20.30;;;14.93;;
76348;SDS011;65172;46.764;15.406;2023-06-26T01:53:08;21.30;;;14.20;;
76348;SDS011;65172;46.764;15.406;2023-06-26T01:58:09;21.63;;;15.18;;
76348;SDS011;65172;46.764;15.406;2023-06-26T02:00:35;20.23;;;14.55;;
76348;SDS011;65172;46.764;15.406;2023-06-26T02:03:01;21.58;;;15.30;;
76348;SDS011;65172;46.764;15.406;2023-06-26T02:05:27;19.73;;;13.63;;
76348;SDS011;65172;46.764;15.406;2023-06-26T02:07:52;19.10;;;12.77;;
76348;SDS011;65172;46.764;15.406;2023-06-26T02:10:18;17.42;;;12.35;;
76348;SDS011;65172;46.764;15.406;2023-06-26T02:12:43;17.15;;;12.68;;
76348;SDS011;65172;46.764;15.406;2023-06-26T02:15:09;20.10;;;14.05;;
76348;SDS011;65172;46.764;15.406;2023-06-26T02:17:34;17.73;;;12.60;;
76348;SDS011;65172;46.764;15.406;2023-06-26T02:20:00;21.10;;;14.88;;
76348;SDS011;65172;46.764;15.406;2023-06-26T02:22:25;22.45;;;14.30;;
76348;SDS011;65172;46.764;15.406;2023-06-26T02:24:53;17.98;;;14.57;;
76348;SDS011;65172;46.764;15.406;2023-06-26T02:27:19;21.88;;;15.40;;
76348;SDS011;65172;46.764;15.406;2023-06-26T02:29:44;25.02;;;15.63;;
76348;SDS011;65172;46.764;15.406;2023-06-26T02:32:10;17.65;;;12.88;;
76348;SDS011;65172;46.764;15.406;2023-06-26T02:34:35;21.27;;;15.35;;
76348;SDS011;65172;46.764;15.406;2023-06-26T02:37:01;21.58;;;14.63;;
76348;SDS011;65172;46.764;15.406;2023-06-26T02:39:27;19.73;;;13.80;;
76348;SDS011;65172;46.764;15.406;2023-06-26T02:41:53;18.27;;;13.00;;
76348;SDS011;65172;46.764;15.406;2023-06-26T02:44:18;18.83;;;13.98;;
76348;SDS011;65172;46.764;15.406;2023-06-26T02:46:44;19.42;;;15.13;;
76348;SDS011;65172;46.764;15.406;2023-06-26T02:49:10;19.90;;;15.15;;
76348;SDS011;65172;46.764;15.406;2023-06-26T02:51:36;21.05;;;14.68;;
76348;SDS011;65172;46.764;15.406;2023-06-26T02:54:01;18.35;;;12.77;;
76348;SDS011;65172;46.764;15.406;2023-06-26T02:56:27;18.15;;;13.82;;
76348;SDS011;65172;46.764;15.406;2023-06-26T02:58:54;19.92;;;13.63;;
76348;SDS011;65172;46.764;15.406;2023-06-26T03:01:20;21.15;;;14.43;;
76348;SDS011;65172;46.764;15.406;2023-06-26T03:03:46;15.95;;;12.43;;
76348;SDS011;65172;46.764;15.406;2023-06-26T03:06:12;21.75;;;16.52;;
76348;SDS011;65172;46.764;15.406;2023-06-26T03:08:38;21.83;;;15.50;;
76348;SDS011;65172;46.764;15.406;2023-06-26T03:11:04;18.42;;;13.02;;
76348;SDS011;65172;46.764;15.406;2023-06-26T03:13:31;21.80;;;15.88;;
76348;SDS011;65172;46.764;15.406;2023-06-26T03:15:57;18.13;;;13.02;;
76348;SDS011;65172;46.764;15.406;2023-06-26T03:18:23;18.40;;;13.05;;
76348;SDS011;65172;46.764;15.406;2023-06-26T03:20:48;20.38;;;13.40;;
76348;SDS011;65172;46.764;15.406;2023-06-26T03:23:14;15.63;;;12.80;;
76348;SDS011;65172;46.764;15.406;2023-06-26T03:25:40;26.80;;;18.08;;
76348;SDS011;65172;46.764;15.406;2023-06-26T03:28:05;20.90;;;14.68;;
76348;SDS011;65172;46.764;15.406;2023-06-26T03:30:31;19.08;;;13.30;;
76348;SDS011;65172;46.764;15.406;2023-06-26T03:32:56;20.27;;;14.27;;
76348;SDS011;65172;46.764;15.406;2023-06-26T03:35:22;19.45;;;12.98;;
76348;SDS011;65172;46.764;15.406;2023-06-26T03:37:48;19.42;;;14.48;;
76348;SDS011;65172;46.764;15.406;2023-06-26T03:40:14;19.73;;;13.52;;
76348;SDS011;65172;46.764;15.406;2023-06-26T03:42:39;19.00;;;14.15;;
76348;SDS011;65172;46.764;15.406;2023-06-26T03:45:05;20.95;;;13.55;;
76348;SDS011;65172;46.764;15.406;2023-06-26T03:47:31;21.85;;;13.73;;
76348;SDS011;65172;46.764;15.406;2023-06-26T03:49:56;20.30;;;14.55;;
76348;SDS011;65172;46.764;15.406;2023-06-26T03:52:22;20.83;;;13.30;;
76348;SDS011;65172;46.764;15.406;2023-06-26T03:54:48;19.73;;;14.70;;
76348;SDS011;65172;46.764;15.406;2023-06-26T03:57:14;20.20;;;13.88;;
76348;SDS011;65172;46.764;15.406;2023-06-26T03:59:39;20.40;;;14.25;;
76348;SDS011;65172;46.764;15.406;2023-06-26T04:02:05;20.55;;;15.05;;
76348;SDS011;65172;46.764;15.406;2023-06-26T04:04:30;22.13;;;16.88;;
76348;SDS011;65172;46.764;15.406;2023-06-26T04:06:56;24.33;;;16.02;;
76348;SDS011;65172;46.764;15.406;2023-06-26T04:09:24;20.95;;;15.77;;
76348;SDS011;65172;46.764;15.406;2023-06-26T04:11:50;22.25;;;16.45;;
76348;SDS011;65172;46.764;15.406;2023-06-26T04:14:15;25.77;;;16.73;;
76348;SDS011;65172;46.764;15.406;2023-06-26T04:16:41;20.17;;;14.23;;
76348;SDS011;65172;46.764;15.406;2023-06-26T04:19:07;21.10;;;14.70;;
76348;SDS011;65172;46.764;15.406;2023-06-26T04:21:32;22.88;;;16.08;;
76348;SDS011;65172;46.764;15.406;2023-06-26T04:23:58;21.75;;;15.95;;
76348;SDS011;65172;46.764;15.406;2023-06-26T04:26:24;21.70;;;16.48;;
76348;SDS011;65172;46.764;15.406;2023-06-26T04:28:49;23.77;;;16.40;;
76348;SDS011;65172;46.764;15.406;2023-06-26T04:31:14;20.73;;;15.88;;
76348;SDS011;65172;46.764;15.406;2023-06-26T04:33:40;23.35;;;17.70;;
76348;SDS011;65172;46.764;15.406;2023-06-26T04:36:08;22.48;;;15.85;;
76348;SDS011;65172;46.764;15.406;2023-06-26T04:38:34;23.42;;;16.98;;
76348;SDS011;65172;46.764;15.406;2023-06-26T04:41:00;27.17;;;16.02;;
76348;SDS011;65172;46.764;15.406;2023-06-26T04:43:26;25.45;;;16.35;;
76348;SDS011;65172;46.764;15.406;2023-06-26T04:45:51;19.42;;;14.77;;
76348;SDS011;65172;46.764;15.406;2023-06-26T04:48:17;24.48;;;15.75;;
76348;SDS011;65172;46.764;15.406;2023-06-26T04:50:43;26.13;;;16.35;;
76348;SDS011;65172;46.764;15.406;2023-06-26T04:53:08;23.55;;;15.40;;
76348;SDS011;65172;46.764;15.406;2023-06-26T04:55:34;19.92;;;13.85;;
76348;SDS011;65172;46.764;15.406;2023-06-26T04:58:00;25.55;;;15.30;;
76348;SDS011;65172;46.764;15.406;2023-06-26T05:00:25;23.15;;;16.63;;
76348;SDS011;65172;46.764;15.406;2023-06-26T05:02:51;22.23;;;16.25;;
76348;SDS011;65172;46.764;15.406;2023-06-26T05:05:28;21.42;;;16.30;;
76348;SDS011;65172;46.764;15.406;2023-06-26T05:07:54;20.52;;;15.75;;
76348;SDS011;65172;46.764;15.406;2023-06-26T05:10:21;21.48;;;15.82;;
76348;SDS011;65172;46.764;15.406;2023-06-26T05:12:47;24.02;;;16.33;;
76348;SDS011;65172;46.764;15.406;2023-06-26T05:15:12;22.17;;;16.92;;
76348;SDS011;65172;46.764;15.406;2023-06-26T05:17:38;20.05;;;16.50;;
76348;SDS011;65172;46.764;15.406;2023-06-26T05:20:03;26.08;;;18.23;;
76348;SDS011;65172;46.764;15.406;2023-06-26T05:22:31;24.05;;;16.88;;
76348;SDS011;65172;46.764;15.406;2023-06-26T05:24:57;21.55;;;15.57;;
76348;SDS011;65172;46.764;15.406;2023-06-26T05:27:25;23.98;;;16.83;;
76348;SDS011;65172;46.764;15.406;2023-06-26T05:29:51;20.98;;;16.73;;
76348;SDS011;65172;46.764;15.406;2023-06-26T05:32:17;22.27;;;16.25;;
76348;SDS011;65172;46.764;15.406;2023-06-26T05:34:45;18.80;;;15.02;;
76348;SDS011;65172;46.764;15.406;2023-06-26T05:37:12;23.48;;;16.10;;
76348;SDS011;65172;46.764;15.406;2023-06-26T05:39:38;20.13;;;14.27;;
76348;SDS011;65172;46.764;15.406;2023-06-26T05:42:07;20.88;;;15.48;;
76348;SDS011;65172;46.764;15.406;2023-06-26T05:44:33;20.73;;;16.33;;
76348;SDS011;65172;46.764;15.406;2023-06-26T05:46:59;17.67;;;13.50;;
76348;SDS011;65172;46.764;15.406;2023-06-26T05:49:24;23.20;;;16.95;;
76348;SDS011;65172;46.764;15.406;2023-06-26T05:51:50;19.23;;;14.90;;
76348;SDS011;65172;46.764;15.406;2023-06-26T05:54:15;17.75;;;14.35;;
76348;SDS011;65172;46.764;15.406;2023-06-26T05:56:41;22.27;;;14.32;;
76348;SDS011;65172;46.764;15.406;2023-06-26T05:59:07;21.33;;;14.80;;
76348;SDS011;65172;46.764;15.406;2023-06-26T06:01:33;20.38;;;14.90;;
76348;SDS011;65172;46.764;15.406;2023-06-26T06:04:00;21.80;;;14.82;;
76348;SDS011;65172;46.764;15.406;2023-06-26T06:06:26;20.52;;;13.57;;
76348;SDS011;65172;46.764;15.406;2023-06-26T06:08:51;18.45;;;14.65;;
76348;SDS011;65172;46.764;15.406;2023-06-26T06:11:17;21.80;;;14.15;;
76348;SDS011;65172;46.764;15.406;2023-06-26T06:13:42;22.00;;;13.07;;
76348;SDS011;65172;46.764;15.406;2023-06-26T06:16:08;13.98;;;11.85;;
76348;SDS011;65172;46.764;15.406;2023-06-26T06:18:33;14.57;;;11.85;;
76348;SDS011;65172;46.764;15.406;2023-06-26T06:20:59;19.60;;;12.35;;
76348;SDS011;65172;46.764;15.406;2023-06-26T06:23:25;20.92;;;13.40;;
76348;SDS011;65172;46.764;15.406;2023-06-26T06:25:50;15.55;;;12.75;;
76348;SDS011;65172;46.764;15.406;2023-06-26T06:28:16;19.23;;;12.68;;
76348;SDS011;65172;46.764;15.406;2023-06-26T06:30:41;16.40;;;11.43;;
76348;SDS011;65172;46.764;15.406;2023-06-26T06:33:07;17.08;;;12.80;;
76348;SDS011;65172;46.764;15.406;2023-06-26T06:35:32;15.88;;;11.68;;
76348;SDS011;65172;46.764;15.406;2023-06-26T06:37:58;16.08;;;12.15;;
76348;SDS011;65172;46.764;15.406;2023-06-26T06:40:24;14.40;;;11.88;;
76348;SDS011;65172;46.764;15.406;2023-06-26T06:42:50;16.33;;;11.80;;
76348;SDS011;65172;46.764;15.406;2023-06-26T06:45:16;14.25;;;10.73;;
76348;SDS011;65172;46.764;15.406;2023-06-26T06:47:41;19.15;;;11.20;;
76348;SDS011;65172;46.764;15.406;2023-06-26T06:50:07;15.27;;;12.63;;
76348;SDS011;65172;46.764;15.406;2023-06-26T06:52:38;14.93;;;11.60;;
76348;SDS011;65172;46.764;15.406;2023-06-26T06:55:05;13.90;;;12.25;;
76348;SDS011;65172;46.764;15.406;2023-06-26T06:57:33;14.77;;;12.05;;
76348;SDS011;65172;46.764;15.406;2023-06-26T07:00:05;16.38;;;12.02;;
76348;SDS011;65172;46.764;15.406;2023-06-26T07:02:38;15.63;;;10.85;;
76348;SDS011;65172;46.764;15.406;2023-06-26T07:05:04;13.98;;;11.38;;
76348;SDS011;65172;46.764;15.406;2023-06-26T07:07:31;13.60;;;11.38;;
76348;SDS011;65172;46.764;15.406;2023-06-26T07:10:03;15.07;;;11.57;;
76348;SDS011;65172;46.764;15.406;2023-06-26T07:12:30;12.95;;;11.18;;
76348;SDS011;65172;46.764;15.406;2023-06-26T07:14:56;15.77;;;11.73;;
76348;SDS011;65172;46.764;15.406;2023-06-26T07:17:22;15.48;;;11.45;;
76348;SDS011;65172;46.764;15.406;2023-06-26T07:19:48;13.65;;;11.73;;
76348;SDS011;65172;46.764;15.406;2023-06-26T07:22:14;15.90;;;11.95;;
76348;SDS011;65172;46.764;15.406;2023-06-26T07:24:39;12.52;;;10.70;;
76348;SDS011;65172;46.764;15.406;2023-06-26T07:27:05;15.90;;;11.90;;
76348;SDS011;65172;46.764;15.406;2023-06-26T07:29:31;13.65;;;11.10;;
76348;SDS011;65172;46.764;15.406;2023-06-26T07:31:56;12.68;;;10.77;;
76348;SDS011;65172;46.764;15.406;2023-06-26T07:34:22;15.13;;;11.73;;
76348;SDS011;65172;46.764;15.406;2023-06-26T07:36:47;12.80;;;11.30;;
76348;SDS011;65172;46.764;15.406;2023-06-26T07:39:13;16.02;;;11.45;;
76348;SDS011;65172;46.764;15.406;2023-06-26T07:41:38;12.30;;;10.85;;
76348;SDS011;65172;46.764;15.406;2023-06-26T07:44:03;13.57;;;10.57;;
76348;SDS011;65172;46.764;15.406;2023-06-26T07:46:29;12.00;;;10.40;;
76348;SDS011;65172;46.764;15.406;2023-06-26T07:48:54;15.35;;;10.50;;
76348;SDS011;65172;46.764;15.406;2023-06-26T07:51:20;13.68;;;10.82;;
76348;SDS011;65172;46.764;15.406;2023-06-26T07:53:46;13.15;;;10.88;;
76348;SDS011;65172;46.764;15.406;2023-06-26T07:56:11;13.15;;;10.68;;
76348;SDS011;65172;46.764;15.406;2023-06-26T07:58:37;12.88;;;9.80;;
76348;SDS011;65172;46.764;15.406;2023-06-26T08:01:02;12.23;;;10.30;;
76348;SDS011;65172;46.764;15.406;2023-06-26T08:03:29;10.82;;;9.63;;
76348;SDS011;65172;46.764;15.406;2023-06-26T08:05:55;11.18;;;10.07;;
76348;SDS011;65172;46.764;15.406;2023-06-26T08:08:20;11.15;;;9.98;;
76348;SDS011;65172;46.764;15.406;2023-06-26T08:10:46;11.45;;;9.70;;
76348;SDS011;65172;46.764;15.406;2023-06-26T08:13:11;11.80;;;10.27;;
76348;SDS011;65172;46.764;15.406;2023-06-26T08:15:37;12.13;;;10.90;;
76348;SDS011;65172;46.764;15.406;2023-06-26T08:18:02;13.07;;;10.57;;
76348;SDS011;65172;46.764;15.406;2023-06-26T08:20:28;11.75;;;9.40;;
76348;SDS011;65172;46.764;15.406;2023-06-26T08:22:53;11.30;;;10.10;;
76348;SDS011;65172;46.764;15.406;2023-06-26T08:25:19;14.45;;;10.50;;
76348;SDS011;65172;46.764;15.406;2023-06-26T08:27:45;10.73;;;9.65;;
76348;SDS011;65172;46.764;15.406;2023-06-26T08:30:11;12.82;;;10.82;;
76348;SDS011;65172;46.764;15.406;2023-06-26T08:32:36;11.90;;;10.65;;
76348;SDS011;65172;46.764;15.406;2023-06-26T08:35:02;11.85;;;10.60;;
76348;SDS011;65172;46.764;15.406;2023-06-26T08:37:27;11.60;;;10.38;;
76348;SDS011;65172;46.764;15.406;2023-06-26T08:39:53;12.95;;;11.07;;
76348;SDS011;65172;46.764;15.406;2023-06-26T08:42:18;13.38;;;9.68;;
76348;SDS011;65172;46.764;15.406;2023-06-26T08:44:44;11.95;;;10.60;;
76348;SDS011;65172;46.764;15.406;2023-06-26T08:47:10;12.25;;;10.90;;
76348;SDS011;65172;46.764;15.406;2023-06-26T08:49:42;12.32;;;9.88;;
76348;SDS011;65172;46.764;15.406;2023-06-26T08:52:17;10.68;;;9.55;;
76348;SDS011;65172;46.764;15.406;2023-06-26T08:54:49;10.82;;;9.18;;
76348;SDS011;65172;46.764;15.406;2023-06-26T08:57:20;10.23;;;9.18;;
76348;SDS011;65172;46.764;15.406;2023-06-26T08:59:48;10.15;;;9.07;;
76348;SDS011;65172;46.764;15.406;2023-06-26T09:02:14;9.88;;;8.88;;
76348;SDS011;65172;46.764;15.406;2023-06-26T09:04:40;9.73;;;8.73;;
76348;SDS011;65172;46.764;15.406;2023-06-26T09:07:05;11.68;;;8.40;;
76348;SDS011;65172;46.764;15.406;2023-06-26T09:09:31;11.30;;;8.35;;
76348;SDS011;65172;46.764;15.406;2023-06-26T09:11:56;10.02;;;9.02;;
76348;SDS011;65172;46.764;15.406;2023-06-26T09:14:22;10.20;;;8.80;;
76348;SDS011;65172;46.764;15.406;2023-06-26T09:16:48;9.68;;;8.65;;
76348;SDS011;65172;46.764;15.406;2023-06-26T09:19:14;9.43;;;7.90;;
76348;SDS011;65172;46.764;15.406;2023-06-26T09:21:41;10.00;;;8.48;;
76348;SDS011;65172;46.764;15.406;2023-06-26T09:24:08;9.68;;;8.68;;
76348;SDS011;65172;46.764;15.406;2023-06-26T09:26:37;11.45;;;8.75;;
76348;SDS011;65172;46.764;15.406;2023-06-26T09:29:04;8.73;;;7.82;;
76348;SDS011;65172;46.764;15.406;2023-06-26T09:31:30;11.43;;;8.40;;
76348;SDS011;65172;46.764;15.406;2023-06-26T09:33:59;8.95;;;8.07;;
76348;SDS011;65172;46.764;15.406;2023-06-26T09:36:27;9.98;;;8.43;;
76348;SDS011;65172;46.764;15.406;2023-06-26T09:38:53;8.32;;;7.53;;
76348;SDS011;65172;46.764;15.406;2023-06-26T09:41:19;8.82;;;7.88;;
76348;SDS011;65172;46.764;15.406;2023-06-26T09:43:48;11.68;;;8.50;;
76348;SDS011;65172;46.764;15.406;2023-06-26T09:46:15;10.38;;;8.52;;
76348;SDS011;65172;46.764;15.406;2023-06-26T09:48:42;10.13;;;7.65;;
76348;SDS011;65172;46.764;15.406;2023-06-26T09:51:08;11.32;;;7.72;;
76348;SDS011;65172;46.764;15.406;2023-06-26T09:53:34;10.25;;;8.52;;
76348;SDS011;65172;46.764;15.406;2023-06-26T09:56:04;9.73;;;8.73;;
76348;SDS011;65172;46.764;15.406;2023-06-26T09:58:32;9.75;;;8.25;;
76348;SDS011;65172;46.764;15.406;2023-06-26T10:00:57;8.75;;;7.85;;
76348;SDS011;65172;46.764;15.406;2023-06-26T10:03:23;10.07;;;7.97;;
76348;SDS011;65172;46.764;15.406;2023-06-26T10:05:48;10.70;;;7.97;;
76348;SDS011;65172;46.764;15.406;2023-06-26T10:08:15;11.63;;;7.78;;
76348;SDS011;65172;46.764;15.406;2023-06-26T10:10:41;9.25;;;7.63;;
76348;SDS011;65172;46.764;15.406;2023-06-26T10:13:22;7.90;;;6.65;;
76348;SDS011;65172;46.764;15.406;2023-06-26T10:15:51;9.70;;;8.15;;
76348;SDS011;65172;46.764;15.406;2023-06-26T10:18:18;9.65;;;8.40;;
76348;SDS011;65172;46.764;15.406;2023-06-26T10:20:47;8.82;;;7.68;;
76348;SDS011;65172;46.764;15.406;2023-06-26T10:23:14;10.32;;;7.82;;
76348;SDS011;65172;46.764;15.406;2023-06-26T10:25:40;8.52;;;7.70;;
76348;SDS011;65172;46.764;15.406;2023-06-26T10:28:07;8.60;;;7.70;;
76348;SDS011;65172;46.764;15.406;2023-06-26T10:30:34;8.25;;;7.43;;
76348;SDS011;65172;46.764;15.406;2023-06-26T10:33:00;8.75;;;7.35;;
76348;SDS011;65172;46.764;15.406;2023-06-26T10:35:27;8.95;;;7.75;;
76348;SDS011;65172;46.764;15.406;2023-06-26T10:37:54;9.23;;;7.32;;
76348;SDS011;65172;46.764;15.406;2023-06-26T10:40:27;8.63;;;7.55;;
76348;SDS011;65172;46.764;15.406;2023-06-26T10:43:08;9.02;;;7.63;;
76348;SDS011;65172;46.764;15.406;2023-06-26T10:45:35;10.98;;;7.78;;
76348;SDS011;65172;46.764;15.406;2023-06-26T10:48:01;9.32;;;7.35;;
76348;SDS011;65172;46.764;15.406;2023-06-26T10:50:28;9.50;;;7.85;;
76348;SDS011;65172;46.764;15.406;2023-06-26T10:53:14;8.68;;;7.78;;
76348;SDS011;65172;46.764;15.406;2023-06-26T10:55:57;9.65;;;7.53;;
76348;SDS011;65172;46.764;15.406;2023-06-26T10:58:34;9.25;;;7.22;;
76348;SDS011;65172;46.764;15.406;2023-06-26T11:03:39;8.95;;;7.63;;
76348;SDS011;65172;46.764;15.406;2023-06-26T11:06:08;8.30;;;7.38;;
76348;SDS011;65172;46.764;15.406;2023-06-26T11:08:49;8.45;;;7.38;;
76348;SDS011;65172;46.764;15.406;2023-06-26T11:11:15;11.90;;;7.18;;
76348;SDS011;65172;46.764;15.406;2023-06-26T11:13:42;8.02;;;7.22;;
76348;SDS011;65172;46.764;15.406;2023-06-26T11:16:07;8.50;;;6.95;;
76348;SDS011;65172;46.764;15.406;2023-06-26T11:18:33;10.90;;;7.35;;
76348;SDS011;65172;46.764;15.406;2023-06-26T11:21:08;8.00;;;7.20;;
76348;SDS011;65172;46.764;15.406;2023-06-26T11:23:35;7.65;;;6.85;;
76348;SDS011;65172;46.764;15.406;2023-06-26T11:26:14;7.63;;;6.82;;
76348;SDS011;65172;46.764;15.406;2023-06-26T11:28:49;7.60;;;6.82;;
76348;SDS011;65172;46.764;15.406;2023-06-26T11:31:29;9.48;;;7.38;;
76348;SDS011;65172;46.764;15.406;2023-06-26T11:33:59;8.63;;;6.88;;
76348;SDS011;65172;46.764;15.406;2023-06-26T11:36:28;7.70;;;6.80;;
76348;SDS011;65172;46.764;15.406;2023-06-26T11:38:57;7.85;;;6.93;;
76348;SDS011;65172;46.764;15.406;2023-06-26T11:41:29;10.10;;;6.93;;
76348;SDS011;65172;46.764;15.406;2023-06-26T11:43:55;8.75;;;6.63;;
76348;SDS011;65172;46.764;15.406;2023-06-26T11:46:25;8.07;;;7.28;;
76348;SDS011;65172;46.764;15.406;2023-06-26T11:48:51;7.50;;;6.70;;
76348;SDS011;65172;46.764;15.406;2023-06-26T11:51:17;8.00;;;7.20;;
76348;SDS011;65172;46.764;15.406;2023-06-26T11:53:43;10.23;;;7.88;;
76348;SDS011;65172;46.764;15.406;2023-06-26T11:56:09;9.65;;;7.90;;
76348;SDS011;65172;46.764;15.406;2023-06-26T11:58:36;9.63;;;6.70;;
76348;SDS011;65172;46.764;15.406;2023-06-26T12:01:17;8.27;;;7.40;;
76348;SDS011;65172;46.764;15.406;2023-06-26T12:03:43;8.27;;;7.47;;
76348;SDS011;65172;46.764;15.406;2023-06-26T12:06:08;8.65;;;7.47;;
76348;SDS011;65172;46.764;15.406;2023-06-26T12:08:34;7.60;;;6.80;;
76348;SDS011;65172;46.764;15.406;2023-06-26T12:11:00;8.23;;;6.57;;
76348;SDS011;65172;46.764;15.406;2023-06-26T12:13:26;10.95;;;6.97;;
76348;SDS011;65172;46.764;15.406;2023-06-26T12:15:51;7.95;;;7.15;;
76348;SDS011;65172;46.764;15.406;2023-06-26T12:18:17;7.80;;;7.00;;
76348;SDS011;65172;46.764;15.406;2023-06-26T12:20:42;10.90;;;7.10;;
76348;SDS011;65172;46.764;15.406;2023-06-26T12:23:11;8.32;;;7.00;;
76348;SDS011;65172;46.764;15.406;2023-06-26T12:25:37;9.50;;;7.13;;
76348;SDS011;65172;46.764;15.406;2023-06-26T12:28:03;7.85;;;7.05;;
76348;SDS011;65172;46.764;15.406;2023-06-26T12:30:29;11.05;;;7.38;;
76348;SDS011;65172;46.764;15.406;2023-06-26T12:32:54;7.78;;;6.97;;
76348;SDS011;65172;46.764;15.406;2023-06-26T12:35:20;7.72;;;6.90;;
76348;SDS011;65172;46.764;15.406;2023-06-26T12:37:46;8.90;;;7.32;;
76348;SDS011;65172;46.764;15.406;2023-06-26T12:40:18;7.95;;;7.10;;
76348;SDS011;65172;46.764;15.406;2023-06-26T12:42:47;7.60;;;6.80;;
76348;SDS011;65172;46.764;15.406;2023-06-26T12:45:13;10.25;;;7.75;;
76348;SDS011;65172;46.764;15.406;2023-06-26T12:47:38;11.30;;;8.32;;
76348;SDS011;65172;46.764;15.406;2023-06-26T12:50:06;9.50;;;7.45;;
76348;SDS011;65172;46.764;15.406;2023-06-26T12:52:33;9.38;;;7.82;;
76348;SDS011;65172;46.764;15.406;2023-06-26T12:54:59;7.68;;;6.95;;
76348;SDS011;65172;46.764;15.406;2023-06-26T12:57:24;7.88;;;7.07;;
76348;SDS011;65172;46.764;15.406;2023-06-26T12:59:51;8.32;;;7.13;;
76348;SDS011;65172;46.764;15.406;2023-06-26T13:02:16;8.45;;;7.25;;
76348;SDS011;65172;46.764;15.406;2023-06-26T13:04:42;10.00;;;7.32;;
76348;SDS011;65172;46.764;15.406;2023-06-26T13:07:09;8.10;;;7.28;;
76348;SDS011;65172;46.764;15.406;2023-06-26T13:09:35;10.25;;;6.57;;
76348;SDS011;65172;46.764;15.406;2023-06-26T13:12:02;7.50;;;6.70;;
76348;SDS011;65172;46.764;15.406;2023-06-26T13:14:31;8.73;;;7.07;;
76348;SDS011;65172;46.764;15.406;2023-06-26T13:16:57;7.40;;;6.55;;
76348;SDS011;65172;46.764;15.406;2023-06-26T13:19:22;7.68;;;6.95;;
76348;SDS011;65172;46.764;15.406;2023-06-26T13:21:48;8.07;;;7.28;;
76348;SDS011;65172;46.764;15.406;2023-06-26T13:24:13;7.53;;;6.72;;
76348;SDS011;65172;46.764;15.406;2023-06-26T13:26:39;7.72;;;6.93;;
76348;SDS011;65172;46.764;15.406;2023-06-26T13:29:05;8.05;;;7.00;;
76348;SDS011;65172;46.764;15.406;2023-06-26T13:31:31;7.68;;;6.25;;
76348;SDS011;65172;46.764;15.406;2023-06-26T13:34:01;7.85;;;7.05;;
76348;SDS011;65172;46.764;15.406;2023-06-26T13:36:28;7.47;;;6.73;;
76348;SDS011;65172;46.764;15.406;2023-06-26T13:38:54;9.18;;;7.10;;
76348;SDS011;65172;46.764;15.406;2023-06-26T13:41:23;7.32;;;6.63;;
76348;SDS011;65172;46.764;15.406;2023-06-26T13:43:48;7.43;;;6.70;;
76348;SDS011;65172;46.764;15.406;2023-06-26T13:46:15;7.65;;;6.68;;
76348;SDS011;65172;46.764;15.406;2023-06-26T13:48:40;8.73;;;7.32;;
76348;SDS011;65172;46.764;15.406;2023-06-26T13:51:06;7.93;;;7.13;;
76348;SDS011;65172;46.764;15.406;2023-06-26T13:53:31;8.27;;;7.13;;
76348;SDS011;65172;46.764;15.406;2023-06-26T13:55:57;10.85;;;6.47;;
76348;SDS011;65172;46.764;15.406;2023-06-26T13:58:22;8.52;;;6.75;;
76348;SDS011;65172;46.764;15.406;2023-06-26T14:00:52;8.02;;;7.20;;
76348;SDS011;65172;46.764;15.406;2023-06-26T14:03:18;9.70;;;7.43;;
76348;SDS011;65172;46.764;15.406;2023-06-26T14:05:43;7.85;;;7.05;;
76348;SDS011;65172;46.764;15.406;2023-06-26T14:08:09;10.60;;;6.70;;
76348;SDS011;65172;46.764;15.406;2023-06-26T14:10:36;7.53;;;6.72;;
76348;SDS011;65172;46.764;15.406;2023-06-26T14:13:02;8.10;;;6.90;;
76348;SDS011;65172;46.764;15.406;2023-06-26T14:15:28;7.82;;;6.75;;
76348;SDS011;65172;46.764;15.406;2023-06-26T14:17:54;9.00;;;7.75;;
76348;SDS011;65172;46.764;15.406;2023-06-26T14:20:21;10.25;;;7.35;;
76348;SDS011;65172;46.764;15.406;2023-06-26T14:22:47;8.43;;;6.97;;
76348;SDS011;65172;46.764;15.406;2023-06-26T14:25:14;7.50;;;6.80;;